createdAt,value
2017-09-17T17:31:36.807Z,1000
2017-09-17T17:31:55.051Z,990
2017-09-17T17:32:13.802Z,615
2017-09-17T17:32:32.581Z,770
2017-09-17T17:32:51.870Z,915
2017-09-17T17:33:11.140Z,950
2017-09-17T17:33:30.408Z,945
2017-09-17T17:34:03.184Z,810
2017-09-17T17:34:36.142Z,905
2017-09-17T17:35:09.102Z,925
2017-09-17T17:35:42.107Z,950
2017-09-17T17:36:36.229Z,965
2017-09-17T17:36:55.882Z,955
2017-09-17T17:37:29.081Z,955
2017-09-17T17:37:48.078Z,945
2017-09-17T17:38:07.375Z,940
2017-09-17T17:38:26.134Z,930
2017-09-17T17:38:45.125Z,930
2017-09-17T17:39:04.389Z,940
2017-09-17T17:39:23.886Z,930
2017-09-17T17:39:56.619Z,935
2017-09-17T17:40:29.555Z,935
2017-09-17T17:40:48.562Z,935
2017-09-17T17:41:07.022Z,935
2017-09-17T17:41:26.510Z,930
2017-09-17T17:41:44.959Z,940
2017-09-17T17:42:17.905Z,940
2017-09-17T17:42:51.794Z,940
2017-09-17T17:43:11.981Z,940
2017-09-17T17:43:31.181Z,940
2017-09-17T17:43:50.186Z,940
2017-09-17T17:44:42.194Z,945
2017-09-17T17:45:01.607Z,935
2017-09-17T17:45:20.574Z,935
2017-09-17T17:45:38.493Z,925
2017-09-17T17:46:31.007Z,920
2017-09-17T17:46:49.965Z,920
2017-09-17T17:47:08.748Z,920
2017-09-17T17:47:28.437Z,925
2017-09-17T17:47:47.225Z,925
2017-09-17T17:48:06.203Z,920
2017-09-17T17:48:24.992Z,920
2017-09-17T17:48:44.504Z,925
2017-09-17T17:49:03.510Z,935
2017-09-17T17:49:22.321Z,925
2017-09-17T17:49:41.490Z,925
2017-09-17T17:50:00.966Z,925
2017-09-17T17:50:32.672Z,915
2017-09-17T17:50:51.672Z,915
2017-09-17T17:51:11.190Z,915
2017-09-17T17:51:29.939Z,905
2017-09-17T17:51:48.709Z,905
2017-09-17T17:52:06.918Z,905
2017-09-17T17:52:25.690Z,905
2017-09-17T17:52:45.167Z,905
2017-09-17T17:53:04.136Z,905
2017-09-17T17:53:23.609Z,900
2017-09-17T17:53:57.066Z,895
2017-09-17T17:54:49.002Z,890
2017-09-17T17:55:07.974Z,885
2017-09-17T17:55:26.946Z,880
2017-09-17T17:55:44.649Z,880
2017-09-17T17:56:03.076Z,880
2017-09-17T17:56:21.533Z,885
2017-09-17T17:56:39.233Z,880
2017-09-17T17:56:58.202Z,880
2017-09-17T17:57:16.442Z,880
2017-09-17T17:57:35.971Z,880
2017-09-17T17:57:54.220Z,875
2017-09-17T17:58:13.495Z,870
2017-09-17T17:58:31.934Z,870
2017-09-17T17:58:50.170Z,870
2017-09-17T17:59:08.927Z,870
2017-09-17T17:59:41.891Z,865
2017-09-17T18:00:15.162Z,865
2017-09-17T18:00:33.929Z,860
2017-09-17T18:01:06.661Z,860
2017-09-17T18:01:40.115Z,865
2017-09-17T18:01:59.578Z,860
2017-09-17T18:02:18.548Z,860
2017-09-17T18:02:37.519Z,865
2017-09-17T18:02:56.478Z,860
2017-09-17T18:03:14.937Z,860
2017-09-17T18:03:48.431Z,865
2017-09-17T18:04:07.917Z,855
2017-09-17T18:04:41.188Z,860
2017-09-17T18:05:00.960Z,865
2017-09-17T18:05:52.455Z,855
2017-09-17T18:06:11.796Z,855
2017-09-17T18:06:30.557Z,860
2017-09-17T18:06:49.502Z,860
2017-09-17T18:07:09.028Z,860
2017-09-17T18:07:28.536Z,860
2017-09-17T18:08:20.875Z,860
2017-09-17T18:08:40.577Z,850
2017-09-17T18:08:59.553Z,855
2017-09-17T18:09:51.528Z,845
2017-09-17T18:10:11.026Z,850
2017-09-17T18:11:03.027Z,840
2017-09-17T18:11:22.583Z,840
2017-09-17T18:11:40.838Z,840
2017-09-17T18:12:00.543Z,835
2017-09-17T18:12:19.504Z,830
2017-09-17T18:12:38.454Z,830
2017-09-17T18:12:57.252Z,825
2017-09-17T18:13:16.748Z,825
2017-09-17T18:13:36.460Z,825
2017-09-17T18:13:55.948Z,820
2017-09-17T18:14:14.935Z,820
2017-09-17T18:14:48.204Z,820
2017-09-17T18:15:07.626Z,820
2017-09-17T18:15:27.366Z,815
2017-09-17T18:15:46.177Z,815
2017-09-17T18:16:04.421Z,810
2017-09-17T18:16:37.185Z,800
2017-09-17T18:16:56.670Z,800
2017-09-17T18:17:30.149Z,795
2017-09-17T18:17:49.654Z,790
2017-09-17T18:18:08.408Z,790
2017-09-17T18:18:41.150Z,785
2017-09-17T18:19:14.086Z,780
2017-09-17T18:19:47.052Z,775
2017-09-17T18:20:38.931Z,770
2017-09-17T18:21:11.190Z,765
2017-09-17T18:21:29.625Z,760
2017-09-17T18:21:48.613Z,750
2017-09-17T18:22:22.113Z,745
2017-09-17T18:22:41.618Z,745
2017-09-17T18:23:15.096Z,735
2017-09-17T18:24:06.996Z,715
2017-09-17T18:24:25.949Z,710
2017-09-17T18:24:45.217Z,665
2017-09-17T18:25:04.472Z,670
2017-09-17T18:25:57.479Z,615
2017-09-17T18:26:29.186Z,580
2017-09-17T18:26:47.659Z,665
2017-09-17T18:27:05.879Z,685
2017-09-17T18:27:24.639Z,605
2017-09-17T18:27:57.570Z,625
2017-09-17T18:28:16.545Z,525
2017-09-17T18:28:35.525Z,460
2017-09-17T18:28:54.313Z,480
2017-09-17T18:29:13.647Z,460
2017-09-17T18:29:32.414Z,460
2017-09-17T18:29:51.160Z,450
2017-09-17T18:30:09.389Z,455
2017-09-17T18:30:42.144Z,460
2017-09-17T18:31:01.627Z,460
2017-09-17T18:31:53.503Z,460
2017-09-17T18:32:12.837Z,465
2017-09-17T18:32:31.586Z,520
2017-09-17T18:33:05.043Z,540
2017-09-17T18:33:38.503Z,650
2017-09-17T18:33:57.258Z,665
2017-09-17T18:34:16.211Z,645
2017-09-17T18:34:35.162Z,640
2017-09-17T18:34:54.154Z,550
2017-09-17T18:35:12.607Z,625
2017-09-17T18:35:31.354Z,660
2017-09-17T18:35:50.147Z,685
2017-09-17T18:36:09.126Z,690
2017-09-17T18:36:27.909Z,690
2017-09-17T18:36:46.174Z,685
2017-09-17T18:37:05.503Z,695
2017-09-17T18:37:39.098Z,695
2017-09-17T18:38:31.530Z,705
2017-09-17T18:38:51.001Z,700
2017-09-17T18:39:09.969Z,695
2017-09-17T18:39:28.931Z,700
2017-09-17T18:39:47.683Z,690
2017-09-17T18:40:06.138Z,680
2017-09-17T18:40:25.654Z,685
2017-09-17T18:40:44.443Z,695
2017-09-17T18:41:03.240Z,690
2017-09-17T18:41:21.691Z,690
2017-09-17T18:41:40.475Z,690
2017-09-17T18:41:59.960Z,685
2017-09-17T18:42:18.733Z,685
2017-09-17T18:43:10.997Z,675
2017-09-17T18:43:29.951Z,670
2017-09-17T18:43:48.199Z,670
2017-09-17T18:44:21.533Z,655
2017-09-17T18:44:40.197Z,650
2017-09-17T18:44:59.486Z,650
2017-09-17T18:45:18.960Z,645
2017-09-17T18:45:52.456Z,640
2017-09-17T18:46:11.532Z,645
2017-09-17T18:46:45.600Z,635
2017-09-17T18:47:17.318Z,630
2017-09-17T18:47:37.416Z,625
2017-09-17T18:47:55.360Z,620
2017-09-17T18:49:02.348Z,615
2017-09-17T18:49:21.300Z,600
2017-09-17T18:49:40.153Z,595
2017-09-17T18:52:16.820Z,575
2017-09-17T18:52:37.310Z,570
2017-09-17T18:52:57.384Z,570
2017-09-17T18:53:15.838Z,570
2017-09-17T18:53:35.091Z,570
2017-09-17T18:54:40.149Z,560
2017-09-17T18:54:59.109Z,560
2017-09-17T18:57:24.944Z,540
2017-09-17T18:57:44.305Z,540
2017-09-17T18:58:31.260Z,535
2017-09-17T18:59:36.135Z,530
2017-09-17T18:59:53.557Z,530
2017-09-17T19:00:11.149Z,530
2017-09-17T19:00:58.073Z,525
2017-09-17T19:01:18.397Z,525
2017-09-17T19:02:40.629Z,515
2017-09-17T19:03:01.914Z,515
2017-09-17T19:03:20.762Z,510
2017-09-17T19:04:27.062Z,510
2017-09-17T19:04:45.197Z,510
2017-09-17T19:05:04.518Z,515
2017-09-17T19:05:24.306Z,515
2017-09-17T19:05:57.251Z,515
2017-09-17T19:07:30.685Z,505
2017-09-17T19:08:05.140Z,500
2017-09-17T19:08:23.477Z,500
2017-09-17T19:08:41.604Z,500
2017-09-17T19:10:00.752Z,495
2017-09-17T19:11:21.052Z,490
2017-09-17T19:11:38.652Z,490
2017-09-17T19:11:57.664Z,495
2017-09-17T19:12:30.288Z,490
2017-09-17T19:13:03.317Z,495
2017-09-17T19:13:21.870Z,490
2017-09-17T19:14:42.918Z,480
2017-09-17T19:15:02.133Z,475
2017-09-17T19:16:22.551Z,470
2017-09-17T19:16:42.734Z,470
2017-09-17T19:18:48.556Z,450
2017-09-17T19:20:29.669Z,440
2017-09-17T19:21:02.632Z,435
2017-09-17T19:21:23.317Z,430
2017-09-17T19:21:41.239Z,430
2017-09-17T19:22:00.603Z,425
2017-09-17T19:22:33.741Z,425
2017-09-17T19:23:54.763Z,420
2017-09-17T19:24:13.391Z,420
2017-09-17T19:24:46.516Z,415
2017-09-17T19:25:20.812Z,410
2017-09-17T19:25:53.059Z,405
2017-09-17T19:27:46.087Z,400
2017-09-17T19:28:05.789Z,395
2017-09-17T19:29:26.483Z,390
2017-09-17T19:30:13.211Z,385
2017-09-17T19:30:31.340Z,385
2017-09-17T19:30:50.142Z,385
2017-09-17T19:31:08.595Z,380
2017-09-17T19:31:41.559Z,385
2017-09-17T19:32:32.660Z,375
2017-09-17T19:32:52.144Z,370
2017-09-17T19:34:39.919Z,360
2017-09-17T19:36:31.410Z,350
2017-09-17T19:38:24.110Z,340
2017-09-17T19:40:01.074Z,340
2017-09-17T19:40:20.622Z,325
2017-09-17T19:40:40.696Z,325
2017-09-17T19:41:13.361Z,335
2017-09-17T19:41:32.244Z,335
2017-09-17T19:41:51.628Z,340
2017-09-17T19:42:25.138Z,330
2017-09-17T19:42:44.868Z,320
2017-09-17T19:43:31.332Z,325
2017-09-17T19:43:52.147Z,315
2017-09-17T19:44:39.384Z,270
2017-09-17T19:44:58.681Z,265
2017-09-17T19:45:32.216Z,255
2017-09-17T19:45:51.619Z,260
2017-09-17T19:46:10.977Z,260
2017-09-17T19:47:16.217Z,255
2017-09-17T19:47:48.609Z,220
2017-09-17T19:48:08.492Z,215
2017-09-17T19:49:13.866Z,200
2017-09-17T19:50:19.481Z,200
2017-09-17T19:50:39.431Z,210
2017-09-17T19:51:12.251Z,205
2017-09-17T19:51:45.408Z,205
2017-09-17T19:52:31.828Z,200
2017-09-17T19:53:05.530Z,195
2017-09-17T19:53:24.889Z,195
2017-09-17T19:54:12.771Z,180
2017-09-17T19:55:36.597Z,195
2017-09-17T19:56:42.600Z,195
2017-09-17T19:57:02.562Z,185
2017-09-17T19:57:35.906Z,180
2017-09-17T19:58:09.064Z,175
2017-09-17T19:59:01.015Z,160
2017-09-17T19:59:20.357Z,150
2017-09-17T19:59:39.130Z,140
2017-09-17T19:59:57.481Z,145
2017-09-17T20:00:16.108Z,140
2017-09-17T20:00:49.079Z,135
2017-09-17T20:01:36.274Z,135
2017-09-17T20:02:09.829Z,125
2017-09-17T20:02:57.088Z,120
2017-09-17T20:03:16.863Z,120
2017-09-17T20:03:35.082Z,120
2017-09-17T20:03:55.168Z,115
2017-09-17T20:04:27.790Z,110
2017-09-17T20:05:01.197Z,110
2017-09-17T20:05:32.904Z,105
2017-09-17T20:06:20.347Z,95
2017-09-17T20:06:39.554Z,90
2017-09-17T20:07:12.865Z,75
2017-09-17T20:07:31.523Z,75
2017-09-17T20:08:23.657Z,65
2017-09-17T20:09:29.396Z,60
2017-09-17T20:09:47.492Z,60
2017-09-17T20:10:06.462Z,60
2017-09-17T20:10:24.910Z,60
2017-09-17T20:10:57.343Z,60
2017-09-17T20:11:30.105Z,60
2017-09-17T20:12:03.049Z,55
2017-09-17T20:12:53.872Z,55
2017-09-17T20:13:26.129Z,55
2017-09-17T20:13:44.174Z,55
2017-09-17T20:14:02.978Z,55
2017-09-17T20:14:21.459Z,50
2017-09-17T20:15:27.319Z,50
2017-09-17T20:15:59.015Z,50
2017-09-17T20:16:17.954Z,50
2017-09-17T20:17:10.546Z,45
2017-09-17T20:18:02.947Z,50
2017-09-17T20:18:34.117Z,50
2017-09-17T20:19:07.068Z,50
2017-09-17T20:19:25.016Z,50
2017-09-17T20:20:17.452Z,50
2017-09-17T20:20:36.678Z,50
2017-09-17T20:20:54.648Z,50
2017-09-17T20:21:13.909Z,50
2017-09-17T20:21:46.879Z,45
2017-09-17T20:22:34.131Z,45
2017-09-17T20:22:52.992Z,45
2017-09-17T20:23:12.429Z,45
2017-09-17T20:23:29.616Z,45
2017-09-17T20:24:21.339Z,40
2017-09-17T20:24:40.100Z,40
2017-09-17T20:25:13.076Z,40
2017-09-17T20:25:31.537Z,40
2017-09-17T20:25:50.240Z,45
2017-09-17T20:26:08.491Z,45
2017-09-17T20:26:26.185Z,45
2017-09-17T20:26:43.944Z,40
2017-09-17T20:27:02.184Z,40
2017-09-17T20:27:33.888Z,35
2017-09-17T20:28:06.112Z,35
2017-09-17T20:28:39.072Z,40
2017-09-17T20:28:58.158Z,40
2017-09-17T20:29:15.892Z,45
2017-09-17T20:29:34.221Z,45
2017-09-17T20:29:53.538Z,45
2017-09-17T20:30:12.463Z,45
2017-09-17T20:30:32.212Z,45
2017-09-17T20:30:49.410Z,40
2017-09-17T20:31:41.132Z,40
2017-09-17T20:32:00.119Z,40
2017-09-17T20:32:18.558Z,40
2017-09-17T20:32:36.922Z,40
2017-09-17T20:33:09.146Z,35
2017-09-17T20:33:41.384Z,30
2017-09-17T20:34:14.781Z,30
2017-09-17T20:34:32.490Z,30
2017-09-17T20:34:49.890Z,30
2017-09-17T20:35:08.656Z,30
2017-09-17T20:35:41.082Z,25
2017-09-17T20:35:59.336Z,25
2017-09-17T20:36:31.575Z,25
2017-09-17T20:37:22.950Z,25
2017-09-17T20:37:41.845Z,25
2017-09-17T20:38:14.285Z,20
2017-09-17T20:38:32.558Z,20
2017-09-17T20:38:52.051Z,20
2017-09-17T20:39:09.976Z,20
2017-09-17T20:39:28.437Z,20
2017-09-17T20:40:01.413Z,15
2017-09-17T20:40:19.647Z,15
2017-09-17T20:40:36.849Z,15
2017-09-17T20:40:55.513Z,15
2017-09-17T20:41:13.963Z,15
2017-09-17T20:41:32.221Z,15
2017-09-17T20:41:50.155Z,15
2017-09-17T20:42:09.631Z,15
2017-09-17T20:42:27.899Z,15
2017-09-17T20:43:00.633Z,10
2017-09-17T20:43:19.606Z,10
2017-09-17T20:43:37.550Z,10
2017-09-17T20:43:55.503Z,10
2017-09-17T20:44:28.470Z,10
2017-09-17T20:44:47.501Z,10
2017-09-17T20:45:05.907Z,10
2017-09-17T20:45:38.686Z,10
2017-09-17T20:45:56.073Z,10
2017-09-17T20:46:14.074Z,10
2017-09-17T20:46:33.109Z,10
2017-09-17T20:46:52.623Z,10
2017-09-17T20:47:11.589Z,10
2017-09-17T20:47:45.063Z,10
2017-09-17T20:48:03.506Z,10
2017-09-17T20:48:22.844Z,10
2017-09-17T20:48:40.969Z,10
2017-09-17T20:48:59.133Z,10
2017-09-17T20:50:04.914Z,10
2017-09-17T20:50:23.705Z,10
2017-09-17T20:50:42.466Z,10
2017-09-17T20:51:01.224Z,10
2017-09-17T20:51:18.411Z,10
2017-09-17T20:51:36.128Z,10
2017-09-17T20:51:55.815Z,10
2017-09-17T20:52:14.048Z,5
2017-09-17T20:52:32.591Z,5
2017-09-17T20:52:52.147Z,5
2017-09-17T20:53:24.370Z,5
2017-09-17T20:53:42.085Z,5
2017-09-17T20:54:00.535Z,5
2017-09-17T20:54:19.286Z,5
2017-09-17T20:54:37.507Z,5
2017-09-17T20:54:55.229Z,5
2017-09-17T20:55:14.673Z,5
2017-09-17T20:55:33.990Z,5
2017-09-17T20:55:52.769Z,5
2017-09-17T20:56:11.226Z,5
2017-09-17T20:56:29.448Z,5
2017-09-17T20:56:47.197Z,5
2017-09-17T20:57:19.419Z,5
2017-09-17T20:57:38.217Z,0
2017-09-17T20:57:56.461Z,0
2017-09-17T20:58:13.648Z,0
2017-09-17T20:58:32.402Z,0
2017-09-17T20:58:50.626Z,0
2017-09-17T20:59:08.882Z,0
2017-09-17T20:59:27.120Z,0
2017-09-17T20:59:44.849Z,0
2017-09-17T21:00:02.575Z,0
2017-09-17T21:00:21.856Z,0
2017-09-17T21:00:40.116Z,0
2017-09-17T21:00:57.298Z,0
2017-09-17T21:01:15.010Z,0
2017-09-17T21:01:33.756Z,0
2017-09-17T21:01:52.514Z,0
2017-09-17T21:02:10.227Z,0
2017-09-17T21:02:28.989Z,0
2017-09-17T21:02:47.230Z,0
2017-09-17T21:03:05.498Z,0
2017-09-17T21:03:23.733Z,0
2017-09-17T21:03:42.493Z,0
2017-09-17T21:04:01.251Z,0
2017-09-17T21:04:20.000Z,0
2017-09-17T21:04:38.214Z,0
2017-09-17T21:04:57.509Z,0
2017-09-17T21:05:15.209Z,0
2017-09-17T21:05:34.486Z,0
2017-09-17T21:05:53.231Z,0
2017-09-17T21:06:11.475Z,0
2017-09-17T21:06:29.717Z,0
2017-09-17T21:06:47.426Z,0
2017-09-17T21:07:04.648Z,0
2017-09-17T21:07:23.937Z,0
2017-09-17T21:07:42.691Z,0
2017-09-17T21:08:00.921Z,0
2017-09-17T21:08:19.156Z,0
2017-09-17T21:08:37.430Z,0
2017-09-17T21:08:55.137Z,0
2017-09-17T21:09:13.878Z,0
2017-09-17T21:09:32.134Z,0
2017-09-17T21:09:50.393Z,0
2017-09-17T21:10:08.619Z,0
2017-09-17T21:10:25.803Z,0
2017-09-17T21:10:44.036Z,0
2017-09-17T21:11:03.357Z,0
2017-09-17T21:11:21.740Z,0
2017-09-17T21:11:40.489Z,0
2017-09-17T21:11:59.243Z,0
2017-09-17T21:12:17.530Z,0
2017-09-17T21:12:36.273Z,0
2017-09-17T21:12:53.484Z,0
2017-09-17T21:13:12.762Z,0
2017-09-17T21:13:31.504Z,0
2017-09-17T21:13:49.730Z,0
2017-09-17T21:14:06.942Z,0
2017-09-17T21:14:25.732Z,0
2017-09-17T21:14:45.000Z,0
2017-09-17T21:15:02.204Z,0
2017-09-17T21:15:20.439Z,0
2017-09-17T21:15:38.157Z,0
2017-09-17T21:15:56.397Z,0
2017-09-17T21:16:14.623Z,0
2017-09-17T21:16:33.385Z,0
2017-09-17T21:16:50.573Z,0
2017-09-17T21:17:08.785Z,0
2017-09-17T21:17:28.063Z,0
2017-09-17T21:17:45.785Z,0
2017-09-17T21:18:04.034Z,0
2017-09-17T21:18:22.813Z,0
2017-09-17T21:18:41.041Z,0
2017-09-17T21:18:59.268Z,0
2017-09-17T21:19:18.050Z,0
2017-09-17T21:19:36.298Z,0
2017-09-17T21:19:54.527Z,0
2017-09-17T21:20:12.789Z,0
2017-09-17T21:20:31.006Z,0
2017-09-17T21:20:50.266Z,0
2017-09-17T21:21:08.498Z,0
2017-09-17T21:21:27.778Z,0
2017-09-17T21:21:46.524Z,0
2017-09-17T21:22:04.759Z,0
2017-09-17T21:22:24.083Z,0
2017-09-17T21:22:43.113Z,0
2017-09-17T21:23:01.885Z,0
2017-09-17T21:23:20.103Z,0
2017-09-17T21:23:38.355Z,0
2017-09-17T21:23:57.111Z,0
2017-09-17T21:24:15.372Z,0
2017-09-17T21:24:34.664Z,0
2017-09-17T21:24:51.876Z,0
2017-09-17T21:25:10.122Z,0
2017-09-17T21:25:28.359Z,0
2017-09-17T21:25:46.077Z,0
2017-09-17T21:26:03.798Z,0
2017-09-17T21:26:22.040Z,0
2017-09-17T21:26:39.234Z,0
2017-09-17T21:26:57.465Z,0
2017-09-17T21:27:16.198Z,0
2017-09-17T21:27:33.940Z,0
2017-09-17T21:27:52.180Z,0
2017-09-17T21:28:10.925Z,0
2017-09-17T21:28:29.655Z,0
2017-09-17T21:28:48.421Z,0
2017-09-17T21:29:06.666Z,0
2017-09-17T21:29:25.436Z,0
2017-09-17T21:29:43.164Z,0
2017-09-17T21:30:01.409Z,0
2017-09-17T21:30:20.184Z,0
2017-09-17T21:30:38.424Z,0
2017-09-17T21:30:56.660Z,0
2017-09-17T21:31:14.904Z,0
2017-09-17T21:31:33.669Z,0
2017-09-17T21:31:52.444Z,0
2017-09-17T21:32:11.220Z,0
2017-09-17T21:32:29.964Z,0
2017-09-17T21:32:47.172Z,0
2017-09-17T21:33:05.416Z,0
2017-09-17T21:33:23.641Z,0
2017-09-17T21:33:41.891Z,0
2017-09-17T21:33:59.596Z,0
2017-09-17T21:34:17.365Z,0
2017-09-17T21:34:35.112Z,0
2017-09-17T21:34:53.387Z,0
2017-09-17T21:35:12.164Z,0
2017-09-17T21:35:29.336Z,0
2017-09-17T21:35:47.081Z,0
2017-09-17T21:36:04.808Z,0
2017-09-17T21:36:23.049Z,0
2017-09-17T21:36:40.754Z,0
2017-09-17T21:36:59.001Z,0
2017-09-17T21:37:17.432Z,0
2017-09-17T21:37:35.687Z,0
2017-09-17T21:37:52.892Z,0
2017-09-17T21:38:11.123Z,0
2017-09-17T21:38:29.351Z,0
2017-09-17T21:38:47.052Z,0
2017-09-17T21:39:04.831Z,0
2017-09-17T21:39:23.677Z,0
2017-09-17T21:39:41.920Z,0
2017-09-17T21:40:00.666Z,0
2017-09-17T21:40:18.888Z,0
2017-09-17T21:40:37.116Z,0
2017-09-17T21:40:54.906Z,0
2017-09-17T21:41:13.759Z,0
2017-09-17T21:41:32.028Z,0
2017-09-17T21:41:50.335Z,0
2017-09-17T21:42:08.765Z,0
2017-09-17T21:42:26.539Z,0
2017-09-17T21:42:44.790Z,0
2017-09-17T21:43:04.057Z,0
2017-09-17T21:43:22.318Z,0
2017-09-17T21:43:40.738Z,0
2017-09-17T21:43:58.475Z,0
2017-09-17T21:44:16.758Z,0
2017-09-17T21:44:34.487Z,0
2017-09-17T21:44:52.723Z,0
2017-09-17T21:45:12.019Z,0
2017-09-17T21:45:30.017Z,0
2017-09-17T21:45:47.750Z,0
2017-09-17T21:46:04.441Z,0
2017-09-17T21:46:22.665Z,0
2017-09-17T21:46:41.426Z,0
2017-09-17T21:46:59.135Z,0
2017-09-17T21:47:17.360Z,0
2017-09-17T21:47:35.082Z,0
2017-09-17T21:47:53.391Z,0
2017-09-17T21:48:11.092Z,0
2017-09-17T21:48:28.801Z,0
2017-09-17T21:48:45.986Z,0
2017-09-17T21:49:02.687Z,0
2017-09-17T21:49:21.985Z,0
2017-09-17T21:49:40.234Z,0
2017-09-17T21:49:58.479Z,0
2017-09-17T21:50:16.740Z,0
2017-09-17T21:50:35.073Z,0
2017-09-17T21:50:52.777Z,0
2017-09-17T21:51:10.512Z,0
2017-09-17T21:51:29.377Z,0
2017-09-17T21:51:47.194Z,0
2017-09-17T21:52:04.924Z,0
2017-09-17T21:52:23.147Z,0
2017-09-17T21:52:41.418Z,0
2017-09-17T21:52:59.145Z,0
2017-09-17T21:53:16.877Z,0
2017-09-17T21:53:35.625Z,0
2017-09-17T21:53:53.852Z,0
2017-09-17T21:54:11.573Z,0
2017-09-17T21:54:29.301Z,0
2017-09-17T21:54:47.000Z,0
2017-09-17T21:55:05.770Z,0
2017-09-17T21:55:24.539Z,0
2017-09-17T21:55:43.277Z,0
2017-09-17T21:56:02.554Z,0
2017-09-17T21:56:21.829Z,0
2017-09-17T21:56:39.537Z,0
2017-09-17T21:56:57.775Z,0
2017-09-17T21:57:16.552Z,0
2017-09-17T21:57:35.319Z,0
2017-09-17T21:57:53.059Z,0
2017-09-17T21:58:10.811Z,0
2017-09-17T21:58:29.563Z,0
2017-09-17T21:58:48.328Z,0
2017-09-17T21:59:06.575Z,0
2017-09-17T21:59:24.305Z,0
2017-09-17T21:59:42.555Z,0
2017-09-17T22:00:00.776Z,0
2017-09-17T22:00:19.008Z,0
2017-09-17T22:00:36.730Z,0
2017-09-17T22:00:54.440Z,0
2017-09-17T22:01:12.137Z,0
2017-09-17T22:01:30.404Z,0
2017-09-17T22:01:49.155Z,0
2017-09-17T22:02:07.893Z,0
2017-09-17T22:02:26.650Z,0
2017-09-17T22:02:44.361Z,0
2017-09-17T22:03:01.545Z,0
2017-09-17T22:03:20.307Z,0
2017-09-17T22:03:39.079Z,0
2017-09-17T22:03:56.784Z,0
2017-09-17T22:04:15.056Z,0
2017-09-17T22:04:32.749Z,0
2017-09-17T22:04:50.961Z,0
2017-09-17T22:05:09.720Z,0
2017-09-17T22:05:27.417Z,0
2017-09-17T22:05:46.164Z,0
2017-09-17T22:06:03.913Z,0
2017-09-17T22:06:22.136Z,0
2017-09-17T22:06:39.871Z,0
2017-09-17T22:06:58.107Z,0
2017-09-17T22:07:16.356Z,0
2017-09-17T22:07:34.652Z,0
2017-09-17T22:07:53.927Z,0
2017-09-17T22:08:12.680Z,0
2017-09-17T22:08:31.431Z,0
2017-09-17T22:08:50.209Z,0
2017-09-17T22:09:09.505Z,0
2017-09-17T22:09:28.262Z,0
2017-09-17T22:09:47.540Z,0
2017-09-17T22:10:05.257Z,0
2017-09-17T22:10:22.977Z,0
2017-09-17T22:10:41.218Z,0
2017-09-17T22:11:00.003Z,0
2017-09-17T22:11:18.772Z,0
2017-09-17T22:11:36.494Z,0
2017-09-17T22:11:54.729Z,0
2017-09-17T22:12:12.450Z,0
2017-09-17T22:12:30.668Z,0
2017-09-17T22:12:49.940Z,0
2017-09-17T22:13:07.136Z,0
2017-09-17T22:13:25.894Z,0
2017-09-17T22:13:44.152Z,0
2017-09-17T22:14:03.426Z,0
2017-09-17T22:14:20.648Z,0
2017-09-17T22:14:38.865Z,0
2017-09-17T22:14:56.574Z,0
2017-09-17T22:15:14.270Z,0
2017-09-17T22:15:32.512Z,0
2017-09-17T22:15:49.704Z,0
2017-09-17T22:16:07.974Z,0
2017-09-17T22:16:26.741Z,0
2017-09-17T22:16:45.534Z,0
2017-09-17T22:17:03.782Z,0
2017-09-17T22:17:22.022Z,0
2017-09-17T22:17:40.927Z,0
2017-09-17T22:17:59.225Z,0
2017-09-17T22:18:16.436Z,0
2017-09-17T22:18:35.198Z,0
2017-09-17T22:18:53.438Z,0
2017-09-17T22:19:12.241Z,0
2017-09-17T22:19:31.022Z,0
2017-09-17T22:19:48.758Z,0
2017-09-17T22:20:07.019Z,0
2017-09-17T22:20:24.741Z,0
2017-09-17T22:20:41.952Z,0
2017-09-17T22:21:00.239Z,0
2017-09-17T22:21:18.620Z,0
2017-09-17T22:21:36.908Z,0
2017-09-17T22:21:54.628Z,0
2017-09-17T22:22:12.872Z,0
2017-09-17T22:22:31.132Z,0
2017-09-17T22:22:48.843Z,0
2017-09-17T22:23:06.558Z,0
2017-09-17T22:23:24.823Z,0
2017-09-17T22:23:43.091Z,0
2017-09-17T22:24:01.848Z,0
2017-09-17T22:24:21.121Z,0
2017-09-17T22:24:39.393Z,0
2017-09-17T22:24:58.153Z,0
2017-09-17T22:25:15.358Z,0
2017-09-17T22:25:32.553Z,0
2017-09-17T22:25:49.770Z,0
2017-09-17T22:26:07.577Z,0
2017-09-17T22:26:25.892Z,0
2017-09-17T22:26:44.192Z,0
2017-09-17T22:27:03.492Z,0
2017-09-17T22:27:22.767Z,0
2017-09-17T22:27:42.033Z,0
2017-09-17T22:28:00.787Z,0
2017-09-17T22:28:19.551Z,0
2017-09-17T22:28:38.387Z,0
2017-09-17T22:28:56.126Z,0
2017-09-17T22:29:13.338Z,0
2017-09-17T22:29:31.772Z,0
2017-09-17T22:29:49.483Z,0
2017-09-17T22:30:07.788Z,0
2017-09-17T22:30:25.602Z,0
2017-09-17T22:30:43.324Z,0
2017-09-17T22:31:02.092Z,0
2017-09-17T22:31:20.854Z,0
2017-09-17T22:31:38.560Z,0
2017-09-17T22:31:57.992Z,0
2017-09-17T22:32:16.244Z,0
2017-09-17T22:32:35.506Z,0
2017-09-17T22:32:53.241Z,0
2017-09-17T22:33:12.024Z,0
2017-09-17T22:33:30.790Z,0
2017-09-17T22:33:49.118Z,0
2017-09-17T22:34:07.411Z,0
2017-09-17T22:34:34.373Z,0
2017-09-17T22:34:52.769Z,0
2017-09-17T22:35:15.259Z,0
2017-09-17T22:35:34.698Z,0
2017-09-17T22:35:53.951Z,0
2017-09-17T22:36:12.735Z,0
2017-09-17T22:36:35.244Z,0
2017-09-17T22:36:52.630Z,0
2017-09-17T22:37:10.466Z,0
2017-09-17T22:37:28.709Z,0
2017-09-17T22:37:46.479Z,0
2017-09-17T22:38:05.296Z,0
2017-09-17T22:38:24.068Z,0
2017-09-17T22:38:42.884Z,0
2017-09-17T22:39:00.335Z,0
2017-09-17T22:39:19.281Z,0
2017-09-17T22:39:37.020Z,0
2017-09-17T22:39:55.785Z,0
2017-09-17T22:40:15.092Z,0
2017-09-17T22:40:33.352Z,0
2017-09-17T22:40:52.099Z,0
2017-09-17T22:41:10.837Z,0
2017-09-17T22:41:29.087Z,0
2017-09-17T22:41:46.823Z,0
2017-09-17T22:42:05.075Z,0
2017-09-17T22:42:24.336Z,0
2017-09-17T22:42:43.636Z,0
2017-09-17T22:43:02.934Z,0
2017-09-17T22:43:22.264Z,0
2017-09-17T22:43:41.526Z,0
2017-09-17T22:44:00.860Z,0
2017-09-17T22:44:19.611Z,0
2017-09-17T22:44:38.370Z,0
2017-09-17T22:44:57.691Z,0
2017-09-17T22:45:16.967Z,0
2017-09-17T22:45:35.270Z,0
2017-09-17T22:45:54.797Z,0
2017-09-17T22:46:14.630Z,0
2017-09-17T22:46:34.068Z,0
2017-09-17T22:46:53.422Z,0
2017-09-17T22:47:11.722Z,0
2017-09-17T22:47:31.024Z,0
2017-09-17T22:47:49.888Z,0
2017-09-17T22:48:09.183Z,0
2017-09-17T22:48:27.930Z,0
2017-09-17T22:48:46.721Z,0
2017-09-17T22:49:05.557Z,0
2017-09-17T22:49:24.849Z,0
2017-09-17T22:49:44.187Z,0
2017-09-17T22:50:03.000Z,0
2017-09-17T22:50:21.264Z,0
2017-09-17T22:50:40.542Z,0
2017-09-17T22:50:58.790Z,0
2017-09-17T22:51:17.063Z,0
2017-09-17T22:51:36.031Z,0
2017-09-17T22:51:54.786Z,0
2017-09-17T22:52:12.519Z,0
2017-09-17T22:52:31.909Z,0
2017-09-17T22:52:50.687Z,0
2017-09-17T22:53:09.457Z,0
2017-09-17T22:53:27.704Z,0
2017-09-17T22:53:45.932Z,0
2017-09-17T22:54:04.229Z,0
2017-09-17T22:54:23.517Z,0
2017-09-17T22:54:41.772Z,0
2017-09-17T22:55:01.055Z,0
2017-09-17T22:55:20.341Z,0
2017-09-17T22:55:39.118Z,0
2017-09-17T22:55:58.416Z,0
2017-09-17T22:56:17.686Z,0
2017-09-17T22:56:36.966Z,0
2017-09-17T22:56:54.173Z,0
2017-09-17T22:57:13.062Z,0
2017-09-17T22:57:32.770Z,0
2017-09-17T22:57:51.725Z,0
2017-09-17T22:58:10.543Z,0
2017-09-17T22:58:29.369Z,0
2017-09-17T22:58:48.173Z,0
2017-09-17T22:59:06.589Z,0
2017-09-17T22:59:26.450Z,0
2017-09-17T22:59:46.256Z,0
2017-09-17T23:00:05.216Z,0
2017-09-17T23:00:24.570Z,0
2017-09-17T23:00:43.125Z,0
2017-09-17T23:01:02.410Z,0
2017-09-17T23:01:21.697Z,0
2017-09-17T23:01:39.429Z,0
2017-09-17T23:01:58.204Z,0
2017-09-17T23:02:17.474Z,0
2017-09-17T23:02:36.253Z,0
2017-09-17T23:02:55.004Z,0
2017-09-17T23:03:14.284Z,0
2017-09-17T23:03:33.529Z,0
2017-09-17T23:03:52.306Z,0
2017-09-17T23:04:11.089Z,0
2017-09-17T23:04:30.374Z,0
2017-09-17T23:04:49.151Z,0
2017-09-17T23:05:07.912Z,0
2017-09-17T23:05:27.176Z,0
2017-09-17T23:05:46.436Z,0
2017-09-17T23:06:05.194Z,0
2017-09-17T23:06:24.485Z,0
2017-09-17T23:06:43.236Z,0
2017-09-17T23:07:02.548Z,0
2017-09-17T23:07:21.321Z,0
2017-09-17T23:07:39.557Z,0
2017-09-17T23:07:58.850Z,0
2017-09-17T23:08:17.612Z,0
2017-09-17T23:08:35.850Z,0
2017-09-17T23:08:55.127Z,0
2017-09-17T23:09:13.382Z,0
2017-09-17T23:09:32.656Z,0
2017-09-17T23:09:51.951Z,0
2017-09-17T23:10:10.183Z,0
2017-09-17T23:10:28.408Z,0
2017-09-17T23:10:46.112Z,0